createdAt,value
2019-04-03T00:01:07.327Z,11.70
2019-04-03T00:03:34.209Z,11.70
2019-04-03T00:06:00.700Z,11.70
2019-04-03T00:08:26.770Z,11.60
2019-04-03T00:10:52.871Z,11.70
2019-04-03T00:13:18.939Z,11.60
2019-04-03T00:15:45.257Z,11.70
2019-04-03T00:18:11.425Z,11.70
2019-04-03T00:20:37.497Z,11.70
2019-04-03T00:23:03.685Z,11.70
2019-04-03T00:25:29.753Z,11.70
2019-04-03T00:27:55.829Z,11.70
2019-04-03T00:30:22.520Z,11.70
2019-04-03T00:32:48.887Z,11.70
2019-04-03T00:35:14.984Z,11.70
2019-04-03T00:37:41.056Z,11.70
2019-04-03T00:40:07.528Z,11.80
2019-04-03T00:42:33.605Z,11.80
2019-04-03T00:44:59.689Z,11.90
2019-04-03T00:47:25.886Z,11.90
2019-04-03T00:49:52.177Z,11.90
2019-04-03T00:52:18.280Z,11.90
2019-04-03T00:54:45.454Z,11.90
2019-04-03T00:57:11.673Z,11.90
2019-04-03T00:59:37.787Z,11.90
2019-04-03T01:02:03.876Z,11.90
2019-04-03T01:04:30.272Z,11.90
2019-04-03T01:06:56.848Z,11.90
2019-04-03T03:09:11.367Z,10.00
2019-04-03T03:11:39.927Z,10.00
2019-04-03T03:14:07.530Z,9.90
2019-04-03T03:16:34.093Z,9.90
2019-04-03T03:19:01.532Z,9.90
2019-04-03T03:21:29.504Z,9.90
2019-04-03T03:23:57.171Z,9.90
2019-04-03T03:26:23.704Z,9.80
2019-04-03T03:28:50.565Z,9.80
2019-04-03T03:31:17.265Z,9.80
2019-04-03T03:33:45.330Z,9.80
2019-04-03T03:36:20.087Z,9.80
2019-04-03T03:38:40.874Z,9.80
2019-04-03T03:41:07.359Z,9.70
2019-04-03T03:43:37.232Z,9.70
2019-04-03T03:46:02.168Z,9.70
2019-04-03T03:48:28.698Z,9.70
2019-04-03T03:50:57.234Z,9.60
2019-04-03T03:53:23.648Z,9.60
2019-04-03T03:55:50.353Z,9.60
2019-04-03T03:58:18.433Z,9.60
2019-04-03T04:00:51.462Z,9.50
2019-04-03T04:03:14.958Z,9.50
2019-04-03T04:05:41.125Z,9.50
2019-04-03T04:08:10.620Z,9.50
2019-04-03T04:10:37.197Z,9.40
2019-04-03T04:13:03.653Z,9.40
2019-04-03T04:15:30.965Z,9.50
2019-04-03T04:17:57.979Z,9.50
2019-04-03T04:20:24.653Z,9.50
2019-04-03T04:22:51.546Z,9.50
2019-04-03T04:25:17.768Z,9.60
2019-04-03T04:27:44.545Z,9.60
2019-04-03T04:30:14.448Z,9.60
2019-04-03T04:32:40.525Z,9.60
2019-04-03T04:35:07.273Z,9.60
2019-04-03T04:37:34.712Z,9.60
2019-04-03T04:40:01.027Z,9.60
2019-04-03T04:42:27.138Z,9.60
2019-04-03T04:44:53.225Z,9.50
2019-04-03T04:47:19.312Z,9.50
2019-04-03T04:49:45.496Z,9.50
2019-04-03T04:52:11.613Z,9.50
2019-04-03T04:54:37.679Z,9.40
2019-04-03T04:57:04.352Z,9.40
2019-04-03T04:59:30.428Z,9.40
2019-04-03T05:01:56.530Z,9.30
2019-04-03T05:04:23.290Z,9.30
2019-04-03T05:06:50.655Z,9.30
2019-04-03T05:09:16.909Z,9.30
2019-04-03T05:11:43.099Z,9.30
2019-04-03T05:14:09.245Z,9.30
2019-04-03T05:16:35.610Z,9.30
2019-04-03T05:19:09.677Z,9.30
2019-04-03T05:21:30.854Z,9.30
2019-04-03T05:24:10.149Z,9.30
2019-04-03T05:26:25.093Z,9.30
2019-04-03T05:28:55.896Z,9.20
2019-04-03T05:31:19.380Z,9.30
2019-04-03T05:33:45.488Z,9.30
2019-04-03T05:36:11.561Z,9.40
2019-04-03T05:38:38.252Z,9.50
2019-04-03T05:41:05.219Z,9.50
2019-04-03T05:43:31.640Z,9.60
2019-04-03T05:45:57.715Z,9.70
2019-04-03T05:48:23.895Z,9.70
2019-04-03T05:50:49.996Z,9.80
2019-04-03T05:53:16.179Z,9.90
2019-04-03T05:55:42.333Z,10.00
2019-04-03T05:58:08.776Z,10.10
2019-04-03T06:00:37.497Z,10.20
2019-04-03T06:03:02.906Z,10.30
2019-04-03T06:05:29.067Z,10.40
2019-04-03T06:07:55.231Z,10.50
2019-04-03T06:10:21.508Z,10.60
2019-04-03T06:12:47.704Z,10.70
2019-04-03T06:15:14.103Z,10.80
2019-04-03T06:17:40.307Z,10.80
2019-04-03T06:20:06.558Z,10.90
2019-04-03T06:22:32.643Z,11.00
2019-04-03T06:24:58.875Z,11.10
2019-04-03T06:27:27.592Z,11.20
2019-04-03T06:29:55.074Z,11.30
2019-04-03T06:32:24.181Z,11.40
2019-04-03T06:34:49.280Z,11.50
2019-04-03T06:37:15.416Z,11.60
2019-04-03T06:39:41.508Z,11.70
2019-04-03T06:42:13.141Z,11.80
2019-04-03T06:44:39.488Z,11.90
2019-04-03T06:47:05.554Z,12.00
2019-04-03T06:49:31.660Z,12.10
2019-04-03T06:51:58.873Z,12.20
2019-04-03T06:54:25.080Z,12.30
2019-04-03T06:56:52.660Z,12.40
2019-04-03T06:59:19.396Z,12.50
2019-04-03T07:01:45.612Z,12.60
2019-04-03T07:04:11.848Z,12.80
2019-04-03T07:06:38.216Z,12.90
2019-04-03T07:09:05.841Z,13.00
2019-04-03T07:11:31.925Z,13.10
2019-04-03T07:13:58.034Z,13.30
2019-04-03T07:16:24.320Z,13.30
2019-04-03T07:18:50.405Z,13.30
2019-04-03T07:21:16.493Z,13.40
2019-04-03T07:23:43.478Z,13.60
2019-04-03T07:26:09.573Z,13.60
2019-04-03T07:28:36.435Z,13.80
2019-04-03T07:31:03.098Z,13.90
2019-04-03T07:33:29.470Z,14.00
2019-04-03T07:35:55.824Z,14.20
2019-04-03T07:38:22.703Z,14.30
2019-04-03T07:40:50.939Z,14.40
2019-04-03T07:43:17.178Z,14.50
2019-04-03T07:45:43.992Z,14.60
2019-04-03T07:48:10.270Z,14.60
2019-04-03T07:50:37.125Z,14.60
2019-04-03T07:53:03.436Z,14.70
2019-04-03T07:55:29.998Z,14.80
2019-04-03T07:57:58.029Z,15.00
2019-04-03T08:00:25.198Z,15.10
2019-04-03T08:02:51.383Z,15.20
2019-04-03T08:05:17.575Z,15.40
2019-04-03T08:07:43.923Z,15.50
2019-04-03T08:10:10.708Z,15.70
2019-04-03T08:12:37.274Z,15.80
2019-04-03T08:15:06.198Z,15.90
2019-04-03T08:17:32.466Z,15.90
2019-04-03T08:19:58.609Z,16.00
2019-04-03T08:22:24.726Z,16.10
2019-04-03T08:24:53.348Z,16.10
2019-04-03T08:27:20.902Z,16.20
2019-04-03T08:29:47.563Z,16.20
2019-04-03T08:32:16.240Z,16.30
2019-04-03T08:34:41.663Z,16.30
2019-04-03T08:37:10.355Z,16.50
2019-04-03T08:39:36.579Z,16.50
2019-04-03T08:42:02.899Z,16.60
2019-04-03T08:44:29.015Z,16.60
2019-04-03T08:46:55.227Z,16.70
2019-04-03T08:49:21.361Z,16.80
2019-04-03T08:51:47.714Z,16.90
2019-04-03T08:54:13.916Z,16.90
2019-04-03T08:56:40.195Z,17.00
2019-04-03T08:59:06.238Z,17.00
2019-04-03T09:01:32.473Z,17.20
2019-04-03T09:03:58.697Z,17.30
2019-04-03T09:06:24.882Z,17.30
2019-04-03T09:08:51.057Z,17.20
2019-04-03T09:11:17.482Z,17.30
2019-04-03T09:13:43.809Z,17.50
2019-04-03T09:16:10.947Z,17.60
2019-04-03T09:18:38.334Z,17.70
2019-04-03T09:21:05.022Z,17.90
2019-04-03T09:23:31.117Z,17.80
2019-04-03T09:25:57.328Z,17.90
2019-04-03T09:28:23.717Z,18.00
2019-04-03T09:30:50.019Z,17.90
2019-04-03T09:33:16.135Z,18.10
2019-04-03T09:35:43.154Z,18.20
2019-04-03T09:38:10.329Z,18.20
2019-04-03T09:40:37.103Z,18.50
2019-04-03T09:43:03.690Z,18.60
2019-04-03T09:45:30.152Z,18.60
2019-04-03T09:47:56.423Z,18.70
2019-04-03T09:50:23.021Z,18.80
2019-04-03T09:52:50.491Z,18.80
2019-04-03T09:55:16.816Z,18.90
2019-04-03T09:57:42.873Z,19.00
2019-04-03T10:00:11.138Z,19.10
2019-04-03T10:02:37.751Z,19.10
2019-04-03T10:05:05.491Z,19.10
2019-04-03T10:07:32.029Z,18.90
2019-04-03T10:09:59.648Z,19.00
2019-04-03T10:12:25.821Z,19.00
2019-04-03T10:14:51.908Z,18.80
2019-04-03T10:17:17.982Z,18.90
2019-04-03T10:19:45.589Z,19.10
2019-04-03T10:22:12.027Z,19.00
2019-04-03T10:24:38.095Z,19.20
2019-04-03T10:27:04.284Z,19.20
2019-04-03T10:29:30.448Z,19.20
2019-04-03T10:31:56.537Z,19.30
2019-04-03T10:34:22.601Z,19.40
2019-04-03T10:36:48.673Z,19.60
2019-04-03T10:39:15.932Z,19.70
2019-04-03T10:41:42.228Z,19.70
2019-04-03T10:44:09.798Z,19.80
2019-04-03T10:46:36.716Z,19.80
2019-04-03T10:49:03.043Z,19.90
2019-04-03T10:51:31.241Z,20.10
2019-04-03T10:53:57.474Z,20.10
2019-04-03T10:56:23.811Z,20.10
2019-04-03T10:58:50.829Z,20.20
2019-04-03T11:01:17.290Z,20.20
2019-04-03T11:03:43.359Z,20.30
2019-04-03T11:06:09.499Z,20.40
2019-04-03T11:08:36.002Z,20.50
2019-04-03T11:11:04.469Z,20.60
2019-04-03T11:13:30.136Z,20.70
2019-04-03T11:15:56.268Z,20.70
2019-04-03T11:18:22.429Z,20.80
2019-04-03T11:20:48.783Z,21.00
2019-04-03T11:23:14.991Z,20.90
2019-04-03T11:25:42.164Z,20.90
2019-04-03T11:28:08.464Z,21.00
2019-04-03T11:30:34.601Z,21.10
2019-04-03T11:33:00.722Z,21.10
2019-04-03T11:35:27.125Z,21.20
2019-04-03T11:37:53.370Z,21.30
2019-04-03T11:40:19.966Z,21.40
2019-04-03T11:42:46.680Z,21.40
2019-04-03T11:45:14.909Z,21.50
2019-04-03T11:47:41.407Z,21.60
2019-04-03T11:50:08.571Z,21.60
2019-04-03T11:52:34.660Z,21.50
2019-04-03T11:55:00.744Z,21.50
2019-04-03T11:57:48.707Z,21.40
2019-04-03T12:00:21.041Z,21.30
2019-04-03T12:02:47.932Z,21.60
2019-04-03T12:05:19.758Z,21.60
2019-04-03T12:07:43.874Z,21.70
2019-04-03T12:10:10.303Z,21.80
2019-04-03T12:12:36.550Z,22.00
2019-04-03T12:15:05.729Z,22.10
2019-04-03T12:17:32.084Z,22.00
2019-04-03T12:19:58.310Z,21.80
2019-04-03T12:22:24.374Z,21.80
2019-04-03T12:27:16.891Z,22.10
2019-04-03T12:29:43.286Z,22.20
2019-04-03T12:32:10.313Z,22.40
2019-04-03T12:34:37.699Z,22.50
2019-04-03T12:37:04.296Z,22.50
2019-04-03T12:39:30.359Z,22.40
2019-04-03T12:41:56.485Z,22.30
2019-04-03T12:44:23.423Z,22.40
2019-04-03T12:46:49.966Z,22.50
2019-04-03T12:49:16.261Z,22.50
2019-04-03T12:51:42.362Z,22.60
2019-04-03T12:54:08.530Z,22.70
2019-04-03T12:56:34.585Z,22.40
2019-04-03T12:59:00.831Z,22.60
2019-04-03T13:01:26.961Z,22.70
2019-04-03T13:03:56.071Z,22.90
2019-04-03T13:06:21.226Z,23.00
2019-04-03T13:08:47.420Z,23.00
2019-04-03T13:11:13.478Z,23.10
2019-04-03T13:13:39.651Z,23.00
2019-04-03T13:16:07.337Z,23.10
2019-04-03T13:18:33.736Z,23.10
2019-04-03T13:20:59.969Z,23.30
2019-04-03T13:23:26.087Z,23.30
2019-04-03T13:25:53.117Z,23.10
2019-04-03T13:28:20.573Z,23.20
2019-04-03T13:30:47.397Z,23.30
2019-04-03T13:35:41.997Z,23.50
2019-04-03T13:38:08.447Z,23.70
2019-04-03T18:12:45.883Z,20.10
2019-04-03T18:15:13.057Z,19.90
2019-04-03T18:17:39.140Z,19.70
2019-04-03T18:20:07.410Z,19.50
2019-04-03T18:22:33.637Z,19.30
2019-04-03T18:24:59.688Z,19.20
2019-04-03T18:27:25.784Z,19.00
2019-04-03T18:29:51.855Z,18.70
2019-04-03T18:32:17.921Z,18.50
2019-04-03T18:34:44.012Z,18.40
2019-04-03T18:37:10.175Z,18.30
2019-04-03T18:39:36.261Z,18.10
2019-04-03T18:42:02.334Z,18.00
2019-04-03T18:44:30.113Z,17.90
2019-04-03T18:46:56.405Z,17.70
2019-04-03T18:49:22.539Z,17.60
2019-04-03T18:51:48.602Z,17.50
2019-04-03T18:54:14.817Z,17.30
2019-04-03T18:56:40.899Z,17.20
2019-04-03T18:59:06.970Z,17.00
2019-04-03T19:01:33.175Z,16.90
2019-04-03T19:03:59.419Z,16.80
2019-04-03T19:06:25.481Z,16.70
2019-04-03T19:08:51.621Z,16.60
2019-04-03T19:11:17.791Z,16.60
2019-04-03T19:13:45.177Z,16.40
2019-04-03T19:16:12.064Z,16.30
2019-04-03T19:18:38.637Z,16.20
2019-04-03T19:21:04.796Z,16.10
2019-04-03T19:23:31.051Z,16.00
2019-04-03T19:25:58.105Z,15.90
2019-04-03T19:28:25.119Z,15.80
2019-04-03T19:30:51.187Z,15.70
2019-04-03T19:33:17.298Z,15.70
2019-04-03T19:35:43.512Z,15.60
2019-04-03T19:38:09.670Z,15.50
2019-04-03T19:40:35.762Z,15.50
2019-04-03T19:43:01.928Z,15.40
2019-04-03T19:45:28.004Z,15.30
2019-04-03T19:47:54.940Z,15.20
2019-04-03T19:50:21.646Z,15.10
2019-04-03T19:52:47.726Z,15.00
2019-04-03T19:55:14.207Z,14.90
2019-04-03T19:57:40.299Z,14.80
2019-04-03T20:00:07.382Z,14.70
2019-04-03T20:02:33.605Z,14.70
2019-04-03T20:04:59.832Z,14.60
2019-04-03T20:07:26.680Z,14.50
2019-04-03T20:09:54.219Z,14.50
2019-04-03T20:12:20.294Z,14.40
2019-04-03T20:14:57.573Z,14.30
2019-04-03T20:17:14.528Z,14.30
2019-04-03T20:19:40.690Z,14.20
2019-04-03T20:22:07.545Z,14.10
2019-04-03T20:24:33.856Z,14.10
2019-04-03T20:26:59.938Z,14.00
2019-04-03T20:29:27.825Z,13.90
2019-04-03T20:31:55.928Z,13.90
2019-04-03T20:34:22.103Z,13.80
2019-04-03T20:36:50.665Z,13.70
2019-04-03T20:39:16.191Z,13.60
2019-04-03T20:41:42.275Z,13.50
2019-04-03T20:44:08.441Z,13.40
2019-04-03T20:46:34.553Z,13.40
2019-04-03T20:49:03.090Z,13.30
2019-04-03T20:51:28.676Z,13.20
2019-04-03T20:53:54.796Z,13.20
2019-04-03T20:56:20.887Z,13.20
2019-04-03T20:58:55.645Z,13.10
2019-04-03T21:01:15.856Z,13.10
2019-04-03T21:03:43.672Z,13.10
2019-04-03T21:06:09.923Z,13.00
2019-04-03T21:08:36.001Z,12.90
2019-04-03T21:11:02.704Z,12.90
2019-04-03T21:13:28.967Z,12.90
2019-04-03T21:15:55.068Z,12.80
2019-04-03T21:18:21.461Z,12.80
2019-04-03T21:20:47.539Z,12.80
2019-04-03T21:23:13.624Z,12.80
2019-04-03T21:25:40.810Z,12.70
2019-04-03T21:28:07.060Z,12.70
2019-04-03T21:30:33.168Z,12.70
2019-04-03T21:32:59.854Z,12.70
2019-04-03T21:35:26.608Z,12.60
2019-04-03T21:37:52.751Z,12.60
2019-04-03T21:40:18.900Z,12.60
2019-04-03T21:42:44.996Z,12.60
2019-04-03T21:45:11.180Z,12.50
2019-04-03T21:47:37.254Z,12.50
2019-04-03T21:50:04.741Z,12.50
2019-04-03T21:52:30.831Z,12.50
2019-04-03T21:54:58.436Z,12.50
2019-04-03T21:57:24.941Z,12.40
2019-04-03T21:59:50.982Z,12.40
2019-04-03T22:02:17.163Z,12.50
2019-04-03T22:04:43.239Z,12.40
2019-04-03T22:07:09.410Z,12.40
2019-04-03T22:09:35.512Z,12.40
2019-04-03T22:12:01.603Z,12.20
2019-04-03T22:14:27.686Z,12.10
2019-04-03T22:16:53.761Z,12.00
2019-04-03T22:19:19.837Z,11.90
2019-04-03T22:21:45.927Z,11.90
2019-04-03T22:24:12.030Z,11.80
2019-04-03T22:26:38.848Z,11.70
2019-04-03T22:29:06.080Z,11.70
2019-04-03T22:31:32.143Z,11.60
2019-04-03T22:33:58.926Z,11.60
2019-04-03T22:36:25.644Z,11.50
2019-04-03T22:38:51.711Z,11.40
2019-04-03T22:41:17.808Z,11.50
2019-04-03T22:43:44.116Z,11.50
2019-04-03T22:46:11.873Z,11.60
2019-04-03T22:48:38.053Z,11.50
2019-04-03T22:51:06.611Z,11.50
2019-04-03T22:53:32.209Z,11.50
2019-04-03T22:55:58.276Z,11.50
2019-04-03T22:58:24.368Z,11.50
2019-04-03T23:00:50.457Z,11.30
2019-04-03T23:03:16.837Z,11.20
2019-04-03T23:05:42.907Z,11.30
2019-04-03T23:08:09.392Z,11.30
2019-04-03T23:10:55.350Z,11.30
2019-04-03T23:13:21.559Z,11.30
2019-04-03T23:15:47.657Z,11.40
2019-04-03T23:18:13.955Z,11.30
2019-04-03T23:20:41.873Z,11.30
2019-04-03T23:23:07.944Z,11.20
2019-04-03T23:25:34.148Z,11.20
2019-04-03T23:28:02.808Z,11.10
2019-04-03T23:30:28.340Z,11.00
2019-04-03T23:32:54.444Z,10.90
2019-04-03T23:35:21.219Z,10.60
2019-04-03T23:37:47.578Z,10.40
2019-04-03T23:40:13.982Z,10.10
2019-04-03T23:42:40.065Z,9.90
2019-04-03T23:45:06.560Z,10.00
2019-04-03T23:47:32.768Z,9.90
2019-04-03T23:49:58.851Z,9.90
2019-04-03T23:52:25.280Z,9.70
2019-04-03T23:54:51.381Z,9.50
2019-04-03T23:57:17.463Z,9.40
2019-04-03T23:59:44.365Z,9.40
